sensor_id;sensor_type;location;lat;lon;timestamp;temperature;humidity
51655;DHT22;37732;53.106;7.030;2022-11-15T00:01:17;7.80;99.90
51655;DHT22;37732;53.106;7.030;2022-11-15T00:03:44;7.80;99.90
51655;DHT22;37732;53.106;7.030;2022-11-15T00:06:11;7.80;99.90
51655;DHT22;37732;53.106;7.030;2022-11-15T00:08:36;7.80;99.90
51655;DHT22;37732;53.106;7.030;2022-11-15T00:11:03;7.80;99.90
51655;DHT22;37732;53.106;7.030;2022-11-15T00:13:29;7.80;99.90
51655;DHT22;37732;53.106;7.030;2022-11-15T00:16:00;7.70;99.90
51655;DHT22;37732;53.106;7.030;2022-11-15T00:18:26;7.70;99.90
51655;DHT22;37732;53.106;7.030;2022-11-15T00:20:53;7.60;99.90
51655;DHT22;37732;53.106;7.030;2022-11-15T00:23:19;7.60;99.90
51655;DHT22;37732;53.106;7.030;2022-11-15T00:25:45;7.50;99.90
51655;DHT22;37732;53.106;7.030;2022-11-15T00:28:11;7.40;99.90
51655;DHT22;37732;53.106;7.030;2022-11-15T00:30:38;7.40;99.90
51655;DHT22;37732;53.106;7.030;2022-11-15T00:33:05;7.30;99.90
51655;DHT22;37732;53.106;7.030;2022-11-15T00:35:34;7.30;99.90
51655;DHT22;37732;53.106;7.030;2022-11-15T00:38:00;7.20;99.90
51655;DHT22;37732;53.106;7.030;2022-11-15T00:40:27;7.10;99.90
51655;DHT22;37732;53.106;7.030;2022-11-15T00:42:52;7.00;99.90
51655;DHT22;37732;53.106;7.030;2022-11-15T00:45:18;6.90;99.90
51655;DHT22;37732;53.106;7.030;2022-11-15T00:47:45;6.90;99.90
51655;DHT22;37732;53.106;7.030;2022-11-15T00:50:12;6.80;99.90
51655;DHT22;37732;53.106;7.030;2022-11-15T00:52:38;6.80;99.90
51655;DHT22;37732;53.106;7.030;2022-11-15T00:55:04;6.70;99.90
51655;DHT22;37732;53.106;7.030;2022-11-15T00:57:30;6.70;99.90
51655;DHT22;37732;53.106;7.030;2022-11-15T00:59:56;6.70;99.90
51655;DHT22;37732;53.106;7.030;2022-11-15T01:02:22;6.70;99.90
51655;DHT22;37732;53.106;7.030;2022-11-15T01:04:48;6.70;99.90
51655;DHT22;37732;53.106;7.030;2022-11-15T01:07:14;6.70;99.90
51655;DHT22;37732;53.106;7.030;2022-11-15T01:09:40;6.70;99.90
51655;DHT22;37732;53.106;7.030;2022-11-15T01:12:06;6.70;99.90
51655;DHT22;37732;53.106;7.030;2022-11-15T01:14:31;6.70;99.90
51655;DHT22;37732;53.106;7.030;2022-11-15T01:16:57;6.70;99.90
51655;DHT22;37732;53.106;7.030;2022-11-15T01:19:23;6.80;99.90
51655;DHT22;37732;53.106;7.030;2022-11-15T01:21:50;6.80;99.90
51655;DHT22;37732;53.106;7.030;2022-11-15T01:24:16;6.90;99.90
51655;DHT22;37732;53.106;7.030;2022-11-15T01:26:42;7.00;99.90
51655;DHT22;37732;53.106;7.030;2022-11-15T01:29:08;7.00;99.90
51655;DHT22;37732;53.106;7.030;2022-11-15T01:31:34;7.00;99.90
51655;DHT22;37732;53.106;7.030;2022-11-15T01:34:00;7.10;99.90
51655;DHT22;37732;53.106;7.030;2022-11-15T01:36:25;7.10;99.90
51655;DHT22;37732;53.106;7.030;2022-11-15T01:38:56;7.20;99.90
51655;DHT22;37732;53.106;7.030;2022-11-15T01:41:29;7.20;99.90
51655;DHT22;37732;53.106;7.030;2022-11-15T01:46:42;7.30;99.90
51655;DHT22;37732;53.106;7.030;2022-11-15T01:49:19;7.30;99.90
51655;DHT22;37732;53.106;7.030;2022-11-15T01:51:46;7.30;99.90
51655;DHT22;37732;53.106;7.030;2022-11-15T01:54:15;7.30;99.90
51655;DHT22;37732;53.106;7.030;2022-11-15T01:56:55;7.40;99.90
51655;DHT22;37732;53.106;7.030;2022-11-15T01:59:24;7.40;99.90
51655;DHT22;37732;53.106;7.030;2022-11-15T02:01:51;7.40;99.90
51655;DHT22;37732;53.106;7.030;2022-11-15T02:04:45;7.40;99.90
51655;DHT22;37732;53.106;7.030;2022-11-15T02:07:14;7.50;99.90
51655;DHT22;37732;53.106;7.030;2022-11-15T02:09:41;7.40;99.90
51655;DHT22;37732;53.106;7.030;2022-11-15T02:12:09;7.40;99.90
51655;DHT22;37732;53.106;7.030;2022-11-15T02:14:40;7.50;99.90
51655;DHT22;37732;53.106;7.030;2022-11-15T02:17:33;7.50;99.90
51655;DHT22;37732;53.106;7.030;2022-11-15T02:22:56;7.50;99.90
51655;DHT22;37732;53.106;7.030;2022-11-15T02:36:11;7.70;99.90
51655;DHT22;37732;53.106;7.030;2022-11-15T02:38:58;7.70;99.90
51655;DHT22;37732;53.106;7.030;2022-11-15T02:41:45;7.60;99.90
51655;DHT22;37732;53.106;7.030;2022-11-15T02:44:23;7.70;99.90
51655;DHT22;37732;53.106;7.030;2022-11-15T02:46:59;7.70;99.90
51655;DHT22;37732;53.106;7.030;2022-11-15T02:49:48;8.00;99.90
51655;DHT22;37732;53.106;7.030;2022-11-15T02:52:20;7.80;99.90
51655;DHT22;37732;53.106;7.030;2022-11-15T02:55:29;7.70;99.90
51655;DHT22;37732;53.106;7.030;2022-11-15T03:01:04;7.80;99.90
51655;DHT22;37732;53.106;7.030;2022-11-15T03:06:23;7.80;99.90
51655;DHT22;37732;53.106;7.030;2022-11-15T03:09:24;7.80;99.90
51655;DHT22;37732;53.106;7.030;2022-11-15T03:11:59;7.90;99.90
51655;DHT22;37732;53.106;7.030;2022-11-15T03:14:32;7.80;99.90
51655;DHT22;37732;53.106;7.030;2022-11-15T03:19:43;7.90;99.90
51655;DHT22;37732;53.106;7.030;2022-11-15T03:22:17;7.90;99.90
51655;DHT22;37732;53.106;7.030;2022-11-15T03:24:46;7.90;99.90
51655;DHT22;37732;53.106;7.030;2022-11-15T03:27:17;7.90;99.90
51655;DHT22;37732;53.106;7.030;2022-11-15T03:29:49;7.90;99.90
51655;DHT22;37732;53.106;7.030;2022-11-15T03:32:24;7.90;99.90
51655;DHT22;37732;53.106;7.030;2022-11-15T03:35:07;8.00;99.90
51655;DHT22;37732;53.106;7.030;2022-11-15T03:40:17;8.00;99.90
51655;DHT22;37732;53.106;7.030;2022-11-15T03:45:27;8.00;99.90
51655;DHT22;37732;53.106;7.030;2022-11-15T03:48:02;8.00;99.90
51655;DHT22;37732;53.106;7.030;2022-11-15T03:50:31;8.00;99.90
51655;DHT22;37732;53.106;7.030;2022-11-15T03:52:57;8.00;99.90
51655;DHT22;37732;53.106;7.030;2022-11-15T03:55:24;8.00;99.90
51655;DHT22;37732;53.106;7.030;2022-11-15T03:57:52;8.00;99.90
51655;DHT22;37732;53.106;7.030;2022-11-15T04:00:18;8.00;99.90
51655;DHT22;37732;53.106;7.030;2022-11-15T04:02:44;8.00;99.90
51655;DHT22;37732;53.106;7.030;2022-11-15T04:05:10;8.00;99.90
51655;DHT22;37732;53.106;7.030;2022-11-15T04:07:36;8.00;99.90
51655;DHT22;37732;53.106;7.030;2022-11-15T04:10:02;8.00;99.90
51655;DHT22;37732;53.106;7.030;2022-11-15T04:12:34;8.10;99.90
51655;DHT22;37732;53.106;7.030;2022-11-15T04:15:06;8.10;99.90
51655;DHT22;37732;53.106;7.030;2022-11-15T04:20:07;8.10;99.90
51655;DHT22;37732;53.106;7.030;2022-11-15T04:22:54;8.10;99.90
51655;DHT22;37732;53.106;7.030;2022-11-15T04:25:39;8.10;99.90
51655;DHT22;37732;53.106;7.030;2022-11-15T04:28:05;8.10;99.90
51655;DHT22;37732;53.106;7.030;2022-11-15T04:30:31;8.10;99.90
51655;DHT22;37732;53.106;7.030;2022-11-15T04:32:57;8.10;99.90
51655;DHT22;37732;53.106;7.030;2022-11-15T04:35:23;8.10;99.90
51655;DHT22;37732;53.106;7.030;2022-11-15T04:37:49;8.10;99.90
51655;DHT22;37732;53.106;7.030;2022-11-15T04:40:15;8.10;99.90
51655;DHT22;37732;53.106;7.030;2022-11-15T04:42:42;8.10;99.90
51655;DHT22;37732;53.106;7.030;2022-11-15T04:45:08;8.10;99.90
51655;DHT22;37732;53.106;7.030;2022-11-15T04:47:35;8.20;99.90
51655;DHT22;37732;53.106;7.030;2022-11-15T04:50:01;8.10;99.90
51655;DHT22;37732;53.106;7.030;2022-11-15T04:52:26;8.20;99.90
51655;DHT22;37732;53.106;7.030;2022-11-15T04:54:53;8.10;99.90
51655;DHT22;37732;53.106;7.030;2022-11-15T04:57:18;8.20;99.90
51655;DHT22;37732;53.106;7.030;2022-11-15T04:59:44;8.20;99.90
51655;DHT22;37732;53.106;7.030;2022-11-15T05:02:10;8.20;99.90
51655;DHT22;37732;53.106;7.030;2022-11-15T05:04:36;8.30;99.90
51655;DHT22;37732;53.106;7.030;2022-11-15T05:07:02;8.20;99.90
51655;DHT22;37732;53.106;7.030;2022-11-15T05:09:29;8.30;99.90
51655;DHT22;37732;53.106;7.030;2022-11-15T05:11:55;8.30;99.90
51655;DHT22;37732;53.106;7.030;2022-11-15T05:14:21;8.30;99.90
51655;DHT22;37732;53.106;7.030;2022-11-15T05:16:47;8.30;99.90
51655;DHT22;37732;53.106;7.030;2022-11-15T05:19:13;8.40;99.90
51655;DHT22;37732;53.106;7.030;2022-11-15T05:21:39;8.30;99.90
51655;DHT22;37732;53.106;7.030;2022-11-15T05:24:05;8.40;99.90
51655;DHT22;37732;53.106;7.030;2022-11-15T05:26:32;8.50;99.90
51655;DHT22;37732;53.106;7.030;2022-11-15T05:28:59;8.50;99.90
51655;DHT22;37732;53.106;7.030;2022-11-15T05:31:26;8.50;99.90
51655;DHT22;37732;53.106;7.030;2022-11-15T05:33:53;8.60;99.90
51655;DHT22;37732;53.106;7.030;2022-11-15T05:36:31;8.60;99.90
51655;DHT22;37732;53.106;7.030;2022-11-15T05:38:59;8.70;99.90
51655;DHT22;37732;53.106;7.030;2022-11-15T05:41:36;8.70;99.90
51655;DHT22;37732;53.106;7.030;2022-11-15T05:44:05;8.70;99.90
51655;DHT22;37732;53.106;7.030;2022-11-15T05:46:33;8.80;99.90
51655;DHT22;37732;53.106;7.030;2022-11-15T05:49:00;8.80;99.90
51655;DHT22;37732;53.106;7.030;2022-11-15T05:51:28;8.80;99.90
51655;DHT22;37732;53.106;7.030;2022-11-15T05:53:56;8.80;99.90
51655;DHT22;37732;53.106;7.030;2022-11-15T05:56:25;8.90;99.90
51655;DHT22;37732;53.106;7.030;2022-11-15T05:58:55;8.90;99.90
51655;DHT22;37732;53.106;7.030;2022-11-15T06:01:22;9.00;99.90
51655;DHT22;37732;53.106;7.030;2022-11-15T06:03:49;8.90;99.90
51655;DHT22;37732;53.106;7.030;2022-11-15T06:06:15;9.00;99.90
51655;DHT22;37732;53.106;7.030;2022-11-15T06:08:40;9.00;99.90
51655;DHT22;37732;53.106;7.030;2022-11-15T06:11:07;9.00;99.90
51655;DHT22;37732;53.106;7.030;2022-11-15T06:13:33;9.10;99.90
51655;DHT22;37732;53.106;7.030;2022-11-15T06:16:00;9.10;99.90
51655;DHT22;37732;53.106;7.030;2022-11-15T06:18:26;9.30;99.90
51655;DHT22;37732;53.106;7.030;2022-11-15T06:20:52;9.20;99.90
51655;DHT22;37732;53.106;7.030;2022-11-15T06:23:18;9.20;99.90
51655;DHT22;37732;53.106;7.030;2022-11-15T06:25:44;9.30;99.90
51655;DHT22;37732;53.106;7.030;2022-11-15T06:28:10;9.30;99.90
51655;DHT22;37732;53.106;7.030;2022-11-15T06:30:35;9.30;99.90
51655;DHT22;37732;53.106;7.030;2022-11-15T06:33:03;9.30;99.90
51655;DHT22;37732;53.106;7.030;2022-11-15T06:35:29;9.30;99.90
51655;DHT22;37732;53.106;7.030;2022-11-15T06:37:59;9.30;99.90
51655;DHT22;37732;53.106;7.030;2022-11-15T06:40:27;9.40;99.90
51655;DHT22;37732;53.106;7.030;2022-11-15T06:42:58;9.40;99.90
51655;DHT22;37732;53.106;7.030;2022-11-15T06:45:24;9.40;99.90
51655;DHT22;37732;53.106;7.030;2022-11-15T06:47:51;9.50;99.90
51655;DHT22;37732;53.106;7.030;2022-11-15T06:50:16;9.60;99.90
51655;DHT22;37732;53.106;7.030;2022-11-15T06:52:42;9.60;99.90
51655;DHT22;37732;53.106;7.030;2022-11-15T06:55:08;9.60;99.90
51655;DHT22;37732;53.106;7.030;2022-11-15T06:57:35;9.60;99.90
51655;DHT22;37732;53.106;7.030;2022-11-15T07:00:02;9.70;99.90
51655;DHT22;37732;53.106;7.030;2022-11-15T07:02:29;9.60;99.90
51655;DHT22;37732;53.106;7.030;2022-11-15T07:04:54;9.70;99.90
51655;DHT22;37732;53.106;7.030;2022-11-15T07:07:20;9.70;99.90
51655;DHT22;37732;53.106;7.030;2022-11-15T07:09:45;9.70;99.90
51655;DHT22;37732;53.106;7.030;2022-11-15T07:12:11;9.80;99.90
51655;DHT22;37732;53.106;7.030;2022-11-15T07:14:37;9.80;99.90
51655;DHT22;37732;53.106;7.030;2022-11-15T07:17:04;9.80;99.90
51655;DHT22;37732;53.106;7.030;2022-11-15T07:19:30;9.80;99.90
51655;DHT22;37732;53.106;7.030;2022-11-15T07:21:57;9.80;99.90
51655;DHT22;37732;53.106;7.030;2022-11-15T07:24:22;9.90;99.90
51655;DHT22;37732;53.106;7.030;2022-11-15T07:26:48;9.90;99.90
51655;DHT22;37732;53.106;7.030;2022-11-15T07:29:14;9.90;99.90
51655;DHT22;37732;53.106;7.030;2022-11-15T07:31:40;9.90;99.90
51655;DHT22;37732;53.106;7.030;2022-11-15T07:34:06;10.00;99.90
51655;DHT22;37732;53.106;7.030;2022-11-15T07:36:32;9.90;99.90
51655;DHT22;37732;53.106;7.030;2022-11-15T07:38:58;10.00;99.90
51655;DHT22;37732;53.106;7.030;2022-11-15T07:41:24;10.00;99.90
51655;DHT22;37732;53.106;7.030;2022-11-15T07:43:53;10.10;99.90
51655;DHT22;37732;53.106;7.030;2022-11-15T07:46:19;10.10;99.90
51655;DHT22;37732;53.106;7.030;2022-11-15T07:48:45;10.10;99.90
51655;DHT22;37732;53.106;7.030;2022-11-15T07:51:15;10.20;99.90
51655;DHT22;37732;53.106;7.030;2022-11-15T07:53:44;10.20;99.90
51655;DHT22;37732;53.106;7.030;2022-11-15T07:56:10;10.20;99.90
51655;DHT22;37732;53.106;7.030;2022-11-15T07:58:37;10.20;99.90
51655;DHT22;37732;53.106;7.030;2022-11-15T08:01:08;10.30;99.90
51655;DHT22;37732;53.106;7.030;2022-11-15T08:03:35;10.30;99.90
51655;DHT22;37732;53.106;7.030;2022-11-15T08:06:01;10.30;99.90
51655;DHT22;37732;53.106;7.030;2022-11-15T08:08:28;10.40;99.90
51655;DHT22;37732;53.106;7.030;2022-11-15T08:10:54;10.40;99.90
51655;DHT22;37732;53.106;7.030;2022-11-15T08:13:20;10.50;99.90
51655;DHT22;37732;53.106;7.030;2022-11-15T08:15:47;10.50;99.90
51655;DHT22;37732;53.106;7.030;2022-11-15T08:18:14;10.60;99.90
51655;DHT22;37732;53.106;7.030;2022-11-15T08:20:41;10.60;99.90
51655;DHT22;37732;53.106;7.030;2022-11-15T08:23:07;10.60;99.90
51655;DHT22;37732;53.106;7.030;2022-11-15T08:25:35;10.70;99.90
51655;DHT22;37732;53.106;7.030;2022-11-15T08:28:03;10.70;99.90
51655;DHT22;37732;53.106;7.030;2022-11-15T08:30:33;10.70;99.90
51655;DHT22;37732;53.106;7.030;2022-11-15T08:33:00;10.80;99.90
51655;DHT22;37732;53.106;7.030;2022-11-15T08:35:26;10.80;99.90
51655;DHT22;37732;53.106;7.030;2022-11-15T08:37:52;10.90;99.90
51655;DHT22;37732;53.106;7.030;2022-11-15T08:40:18;11.00;99.90
51655;DHT22;37732;53.106;7.030;2022-11-15T08:42:46;11.00;99.90
51655;DHT22;37732;53.106;7.030;2022-11-15T08:45:13;11.00;99.90
51655;DHT22;37732;53.106;7.030;2022-11-15T08:47:39;11.10;99.90
51655;DHT22;37732;53.106;7.030;2022-11-15T08:50:06;11.10;99.90
51655;DHT22;37732;53.106;7.030;2022-11-15T08:52:32;11.10;99.90
51655;DHT22;37732;53.106;7.030;2022-11-15T08:54:58;11.20;99.90
51655;DHT22;37732;53.106;7.030;2022-11-15T08:57:24;11.20;99.90
51655;DHT22;37732;53.106;7.030;2022-11-15T08:59:50;11.20;99.90
51655;DHT22;37732;53.106;7.030;2022-11-15T09:02:16;11.30;99.90
51655;DHT22;37732;53.106;7.030;2022-11-15T09:04:43;11.40;99.90
51655;DHT22;37732;53.106;7.030;2022-11-15T09:07:10;11.50;99.90
51655;DHT22;37732;53.106;7.030;2022-11-15T09:09:37;11.50;99.90
51655;DHT22;37732;53.106;7.030;2022-11-15T09:12:04;11.50;99.90
51655;DHT22;37732;53.106;7.030;2022-11-15T09:14:30;11.50;99.90
51655;DHT22;37732;53.106;7.030;2022-11-15T09:16:56;11.50;99.90
51655;DHT22;37732;53.106;7.030;2022-11-15T09:19:22;11.50;99.90
51655;DHT22;37732;53.106;7.030;2022-11-15T09:21:48;11.50;99.90
51655;DHT22;37732;53.106;7.030;2022-11-15T09:24:14;11.60;99.90
51655;DHT22;37732;53.106;7.030;2022-11-15T09:26:40;11.60;99.90
51655;DHT22;37732;53.106;7.030;2022-11-15T09:29:06;11.60;99.90
51655;DHT22;37732;53.106;7.030;2022-11-15T09:31:32;11.70;99.90
51655;DHT22;37732;53.106;7.030;2022-11-15T09:33:58;11.70;99.90
51655;DHT22;37732;53.106;7.030;2022-11-15T09:36:25;11.70;99.90
51655;DHT22;37732;53.106;7.030;2022-11-15T09:38:51;11.70;99.90
51655;DHT22;37732;53.106;7.030;2022-11-15T09:41:26;11.70;99.90
51655;DHT22;37732;53.106;7.030;2022-11-15T09:49:46;11.70;99.90
51655;DHT22;37732;53.106;7.030;2022-11-15T09:52:17;11.60;99.90
51655;DHT22;37732;53.106;7.030;2022-11-15T09:54:48;11.70;99.90
51655;DHT22;37732;53.106;7.030;2022-11-15T09:57:20;11.70;99.90
51655;DHT22;37732;53.106;7.030;2022-11-15T10:00:13;11.70;99.90
51655;DHT22;37732;53.106;7.030;2022-11-15T10:05:22;11.70;99.90
51655;DHT22;37732;53.106;7.030;2022-11-15T10:10:45;11.80;99.90
51655;DHT22;37732;53.106;7.030;2022-11-15T10:13:22;11.80;99.90
51655;DHT22;37732;53.106;7.030;2022-11-15T10:15:49;11.80;99.90
51655;DHT22;37732;53.106;7.030;2022-11-15T10:21:10;11.80;99.90
51655;DHT22;37732;53.106;7.030;2022-11-15T10:23:40;11.80;99.90
51655;DHT22;37732;53.106;7.030;2022-11-15T10:26:10;11.80;99.90
51655;DHT22;37732;53.106;7.030;2022-11-15T10:28:37;11.80;99.90
51655;DHT22;37732;53.106;7.030;2022-11-15T10:31:02;11.80;99.90
51655;DHT22;37732;53.106;7.030;2022-11-15T10:41:36;11.80;99.90
51655;DHT22;37732;53.106;7.030;2022-11-15T10:44:42;11.90;99.90
51655;DHT22;37732;53.106;7.030;2022-11-15T10:47:24;11.90;99.90
51655;DHT22;37732;53.106;7.030;2022-11-15T10:50:02;11.90;99.90
51655;DHT22;37732;53.106;7.030;2022-11-15T10:52:30;11.90;99.90
51655;DHT22;37732;53.106;7.030;2022-11-15T10:55:20;11.90;99.90
51655;DHT22;37732;53.106;7.030;2022-11-15T10:57:53;11.90;99.90
51655;DHT22;37732;53.106;7.030;2022-11-15T11:03:05;11.90;99.90
51655;DHT22;37732;53.106;7.030;2022-11-15T11:05:34;11.90;99.90
51655;DHT22;37732;53.106;7.030;2022-11-15T11:10:31;12.00;99.90
51655;DHT22;37732;53.106;7.030;2022-11-15T11:13:21;12.00;99.90
51655;DHT22;37732;53.106;7.030;2022-11-15T11:30:23;12.20;99.90
51655;DHT22;37732;53.106;7.030;2022-11-15T11:35:47;12.30;99.90
51655;DHT22;37732;53.106;7.030;2022-11-15T11:41:30;12.40;99.90
51655;DHT22;37732;53.106;7.030;2022-11-15T11:52:22;12.70;99.90
51655;DHT22;37732;53.106;7.030;2022-11-15T11:55:00;12.80;99.90
51655;DHT22;37732;53.106;7.030;2022-11-15T12:00:26;12.90;99.90
51655;DHT22;37732;53.106;7.030;2022-11-15T12:05:35;13.00;99.90
51655;DHT22;37732;53.106;7.030;2022-11-15T12:08:22;13.00;99.90
51655;DHT22;37732;53.106;7.030;2022-11-15T12:10:54;13.00;99.90
51655;DHT22;37732;53.106;7.030;2022-11-15T12:13:26;13.00;99.90
51655;DHT22;37732;53.106;7.030;2022-11-15T12:16:16;12.90;99.90
51655;DHT22;37732;53.106;7.030;2022-11-15T12:18:53;12.80;99.90
51655;DHT22;37732;53.106;7.030;2022-11-15T12:24:04;12.70;99.90
51655;DHT22;37732;53.106;7.030;2022-11-15T12:26:46;12.70;99.90
51655;DHT22;37732;53.106;7.030;2022-11-15T12:29:56;12.70;99.90
51655;DHT22;37732;53.106;7.030;2022-11-15T12:32:38;12.70;99.90
51655;DHT22;37732;53.106;7.030;2022-11-15T12:35:24;12.70;99.90
51655;DHT22;37732;53.106;7.030;2022-11-15T12:37:55;12.70;99.90
51655;DHT22;37732;53.106;7.030;2022-11-15T12:40:28;12.70;99.90
51655;DHT22;37732;53.106;7.030;2022-11-15T12:45:45;12.90;99.90
51655;DHT22;37732;53.106;7.030;2022-11-15T12:50:54;13.00;99.90
51655;DHT22;37732;53.106;7.030;2022-11-15T13:07:02;12.80;99.90
51655;DHT22;37732;53.106;7.030;2022-11-15T13:19:46;12.60;99.90
51655;DHT22;37732;53.106;7.030;2022-11-15T13:22:14;12.50;99.90
51655;DHT22;37732;53.106;7.030;2022-11-15T13:25:00;12.50;99.90
51655;DHT22;37732;53.106;7.030;2022-11-15T13:27:26;12.60;99.90
51655;DHT22;37732;53.106;7.030;2022-11-15T13:29:53;12.70;99.90
51655;DHT22;37732;53.106;7.030;2022-11-15T13:32:19;12.70;99.90
51655;DHT22;37732;53.106;7.030;2022-11-15T13:34:48;12.90;99.90
51655;DHT22;37732;53.106;7.030;2022-11-15T13:39:48;13.00;99.90
51655;DHT22;37732;53.106;7.030;2022-11-15T13:42:20;13.00;99.90
51655;DHT22;37732;53.106;7.030;2022-11-15T13:44:57;13.00;99.90
51655;DHT22;37732;53.106;7.030;2022-11-15T13:47:26;13.00;99.90
51655;DHT22;37732;53.106;7.030;2022-11-15T13:49:59;13.00;99.90
51655;DHT22;37732;53.106;7.030;2022-11-15T13:52:32;12.90;99.90
51655;DHT22;37732;53.106;7.030;2022-11-15T13:55:02;12.90;99.90
51655;DHT22;37732;53.106;7.030;2022-11-15T13:57:41;12.90;99.90
51655;DHT22;37732;53.106;7.030;2022-11-15T14:02:54;12.80;99.90
51655;DHT22;37732;53.106;7.030;2022-11-15T14:05:22;12.70;99.90
51655;DHT22;37732;53.106;7.030;2022-11-15T14:08:04;12.60;99.90
51655;DHT22;37732;53.106;7.030;2022-11-15T14:10:39;12.60;99.90
51655;DHT22;37732;53.106;7.030;2022-11-15T14:13:25;12.50;99.90
51655;DHT22;37732;53.106;7.030;2022-11-15T14:15:52;12.50;99.90
51655;DHT22;37732;53.106;7.030;2022-11-15T14:18:41;12.50;99.90
51655;DHT22;37732;53.106;7.030;2022-11-15T14:21:07;12.50;99.90
51655;DHT22;37732;53.106;7.030;2022-11-15T14:23:33;12.40;99.90
51655;DHT22;37732;53.106;7.030;2022-11-15T14:26:00;12.30;99.90
51655;DHT22;37732;53.106;7.030;2022-11-15T14:30:53;12.20;99.90
51655;DHT22;37732;53.106;7.030;2022-11-15T14:33:34;12.20;99.90
51655;DHT22;37732;53.106;7.030;2022-11-15T14:36:16;12.10;99.90
51655;DHT22;37732;53.106;7.030;2022-11-15T14:38:42;12.10;99.90
51655;DHT22;37732;53.106;7.030;2022-11-15T14:41:21;12.10;99.90
51655;DHT22;37732;53.106;7.030;2022-11-15T14:43:48;12.00;99.90
51655;DHT22;37732;53.106;7.030;2022-11-15T14:46:14;11.90;99.90
51655;DHT22;37732;53.106;7.030;2022-11-15T14:48:40;11.90;99.90
51655;DHT22;37732;53.106;7.030;2022-11-15T14:51:24;11.90;99.90
51655;DHT22;37732;53.106;7.030;2022-11-15T14:53:49;11.80;99.90
51655;DHT22;37732;53.106;7.030;2022-11-15T14:56:16;11.70;99.90
51655;DHT22;37732;53.106;7.030;2022-11-15T14:58:42;11.70;99.90
51655;DHT22;37732;53.106;7.030;2022-11-15T15:01:17;11.60;99.90
51655;DHT22;37732;53.106;7.030;2022-11-15T15:03:44;11.60;99.90
51655;DHT22;37732;53.106;7.030;2022-11-15T15:06:10;11.60;99.90
51655;DHT22;37732;53.106;7.030;2022-11-15T15:08:38;11.50;99.90
51655;DHT22;37732;53.106;7.030;2022-11-15T15:11:28;11.50;99.90
51655;DHT22;37732;53.106;7.030;2022-11-15T15:13:55;11.40;99.90
51655;DHT22;37732;53.106;7.030;2022-11-15T15:16:26;11.30;99.90
51655;DHT22;37732;53.106;7.030;2022-11-15T15:18:52;11.30;99.90
51655;DHT22;37732;53.106;7.030;2022-11-15T15:21:28;11.20;99.90
51655;DHT22;37732;53.106;7.030;2022-11-15T15:23:56;11.20;99.90
51655;DHT22;37732;53.106;7.030;2022-11-15T15:26:23;11.10;99.90
51655;DHT22;37732;53.106;7.030;2022-11-15T15:28:49;11.10;99.90
51655;DHT22;37732;53.106;7.030;2022-11-15T15:31:17;11.00;99.90
51655;DHT22;37732;53.106;7.030;2022-11-15T15:33:44;11.00;99.90
51655;DHT22;37732;53.106;7.030;2022-11-15T15:36:14;10.90;99.90
51655;DHT22;37732;53.106;7.030;2022-11-15T15:38:42;10.90;99.90
51655;DHT22;37732;53.106;7.030;2022-11-15T15:41:13;10.80;99.90
51655;DHT22;37732;53.106;7.030;2022-11-15T15:43:39;10.80;99.90
51655;DHT22;37732;53.106;7.030;2022-11-15T15:46:10;10.70;99.90
51655;DHT22;37732;53.106;7.030;2022-11-15T15:48:37;10.60;99.90
51655;DHT22;37732;53.106;7.030;2022-11-15T15:51:06;10.60;99.90
51655;DHT22;37732;53.106;7.030;2022-11-15T15:53:33;10.60;99.90
51655;DHT22;37732;53.106;7.030;2022-11-15T15:55:58;10.50;99.90
51655;DHT22;37732;53.106;7.030;2022-11-15T15:58:24;10.50;99.90
51655;DHT22;37732;53.106;7.030;2022-11-15T16:00:50;10.40;99.90
51655;DHT22;37732;53.106;7.030;2022-11-15T16:03:16;10.40;99.90
51655;DHT22;37732;53.106;7.030;2022-11-15T16:05:41;10.40;99.90
51655;DHT22;37732;53.106;7.030;2022-11-15T16:08:22;10.30;99.90
51655;DHT22;37732;53.106;7.030;2022-11-15T16:10:49;10.30;99.90
51655;DHT22;37732;53.106;7.030;2022-11-15T16:13:15;10.30;99.90
51655;DHT22;37732;53.106;7.030;2022-11-15T16:15:42;10.30;99.90
51655;DHT22;37732;53.106;7.030;2022-11-15T16:18:15;10.30;99.90
51655;DHT22;37732;53.106;7.030;2022-11-15T16:20:46;10.30;99.90
51655;DHT22;37732;53.106;7.030;2022-11-15T16:23:16;10.30;99.90
51655;DHT22;37732;53.106;7.030;2022-11-15T16:25:54;10.20;99.90
51655;DHT22;37732;53.106;7.030;2022-11-15T16:28:25;10.20;99.90
51655;DHT22;37732;53.106;7.030;2022-11-15T16:31:19;10.20;99.90
51655;DHT22;37732;53.106;7.030;2022-11-15T16:33:49;10.20;99.90
51655;DHT22;37732;53.106;7.030;2022-11-15T16:36:24;10.10;99.90
51655;DHT22;37732;53.106;7.030;2022-11-15T16:38:51;10.10;99.90
51655;DHT22;37732;53.106;7.030;2022-11-15T16:41:17;10.10;99.90
51655;DHT22;37732;53.106;7.030;2022-11-15T16:43:45;10.10;99.90
51655;DHT22;37732;53.106;7.030;2022-11-15T16:46:24;10.00;99.90
51655;DHT22;37732;53.106;7.030;2022-11-15T16:48:51;10.00;99.90
51655;DHT22;37732;53.106;7.030;2022-11-15T16:51:18;10.00;99.90
51655;DHT22;37732;53.106;7.030;2022-11-15T16:53:45;9.90;99.90
51655;DHT22;37732;53.106;7.030;2022-11-15T16:56:27;9.90;99.90
51655;DHT22;37732;53.106;7.030;2022-11-15T16:58:55;9.90;99.90
51655;DHT22;37732;53.106;7.030;2022-11-15T17:01:43;9.90;99.90
51655;DHT22;37732;53.106;7.030;2022-11-15T17:04:17;9.90;99.90
51655;DHT22;37732;53.106;7.030;2022-11-15T17:06:44;9.90;99.90
51655;DHT22;37732;53.106;7.030;2022-11-15T17:09:19;9.90;99.90
51655;DHT22;37732;53.106;7.030;2022-11-15T17:11:46;10.00;99.90
51655;DHT22;37732;53.106;7.030;2022-11-15T17:14:12;10.00;99.90
51655;DHT22;37732;53.106;7.030;2022-11-15T17:16:38;9.90;99.90
51655;DHT22;37732;53.106;7.030;2022-11-15T17:19:17;10.00;99.90
51655;DHT22;37732;53.106;7.030;2022-11-15T17:21:44;10.00;99.90
51655;DHT22;37732;53.106;7.030;2022-11-15T17:24:10;10.00;99.90
51655;DHT22;37732;53.106;7.030;2022-11-15T17:26:36;10.00;99.90
51655;DHT22;37732;53.106;7.030;2022-11-15T17:29:04;10.00;99.90
51655;DHT22;37732;53.106;7.030;2022-11-15T17:31:35;9.90;99.90
51655;DHT22;37732;53.106;7.030;2022-11-15T17:34:03;9.90;99.90
51655;DHT22;37732;53.106;7.030;2022-11-15T17:36:29;9.90;99.90
51655;DHT22;37732;53.106;7.030;2022-11-15T17:38:56;10.00;99.90
51655;DHT22;37732;53.106;7.030;2022-11-15T17:41:22;10.00;99.90
51655;DHT22;37732;53.106;7.030;2022-11-15T17:43:49;10.00;99.90
51655;DHT22;37732;53.106;7.030;2022-11-15T17:46:16;10.00;99.90
51655;DHT22;37732;53.106;7.030;2022-11-15T17:48:45;10.10;99.90
51655;DHT22;37732;53.106;7.030;2022-11-15T17:51:13;10.10;99.90
51655;DHT22;37732;53.106;7.030;2022-11-15T17:53:41;10.10;99.90
51655;DHT22;37732;53.106;7.030;2022-11-15T17:56:13;10.10;99.90
51655;DHT22;37732;53.106;7.030;2022-11-15T17:58:40;10.10;99.90
51655;DHT22;37732;53.106;7.030;2022-11-15T18:03:43;10.10;99.90
51655;DHT22;37732;53.106;7.030;2022-11-15T18:06:09;10.10;99.90
51655;DHT22;37732;53.106;7.030;2022-11-15T18:08:35;10.10;99.90
51655;DHT22;37732;53.106;7.030;2022-11-15T18:11:08;10.10;99.90